Time;durP1;ratioP1;P1;durP2;ratioP2;P2;SDS_P1;SDS_P2;PMS_P1;PMS_P2;Temp;Humidity;BMP_temperature;BMP_pressure;BME280_temperature;BME280_humidity;BME280_pressure;Samples;Min_cycle;Max_cycle;Signal;HPM_P1;HPM_P2
2021/07/06 00:00:23;;;;;;;10.80;4.10;;;;;;;;;;5069101;28;20020;-42
2021/07/06 00:02:51;;;;;;;13.90;3.92;;;;;;;;;;5048171;28;20063;-35
2021/07/06 00:05:18;;;;;;;7.65;3.42;;;;;;;;;;5051009;28;20029;-33
2021/07/06 00:07:46;;;;;;;20.65;3.80;;;;;;;;;;5046904;28;20462;-33
2021/07/06 00:10:15;;;;;;;13.85;3.90;;;;;;;;;;5066019;28;20043;-31
2021/07/06 00:12:42;;;;;;;20.15;4.32;;;;;;;;;;5065830;28;20357;-34
2021/07/06 00:15:10;;;;;;;18.67;4.25;;;;;;;;;;5064288;28;20071;-35
2021/07/06 00:17:38;;;;;;;14.38;4.10;;;;;;;;;;5054331;28;20032;-39
2021/07/06 00:20:07;;;;;;;20.75;4.30;;;;;;;;;;5063799;28;20507;-38
2021/07/06 00:22:34;;;;;;;12.82;3.90;;;;;;;;;;5067494;28;20056;-42
2021/07/06 00:25:01;;;;;;;16.38;4.40;;;;;;;;;;5052153;28;20431;-32
2021/07/06 00:27:28;;;;;;;14.80;4.55;;;;;;;;;;5065480;28;20032;-38
2021/07/06 00:29:55;;;;;;;11.48;4.13;;;;;;;;;;5071257;28;20059;-37
2021/07/06 00:32:22;;;;;;;12.77;4.25;;;;;;;;;;5069670;28;20067;-31
2021/07/06 00:34:49;;;;;;;14.27;4.20;;;;;;;;;;5063363;28;20031;-40
2021/07/06 00:37:16;;;;;;;14.00;4.22;;;;;;;;;;5068306;28;20032;-36
2021/07/06 00:39:43;;;;;;;16.42;4.38;;;;;;;;;;5061802;28;20036;-37
2021/07/06 00:42:10;;;;;;;20.10;4.68;;;;;;;;;;5066084;28;20092;-33
2021/07/06 00:44:38;;;;;;;10.63;4.10;;;;;;;;;;5069333;28;20029;-34
2021/07/06 00:47:05;;;;;;;12.68;4.15;;;;;;;;;;5062306;28;20037;-41
2021/07/06 00:49:33;;;;;;;16.95;4.95;;;;;;;;;;5069039;28;20025;-37
2021/07/06 00:52:00;;;;;;;16.73;4.60;;;;;;;;;;5067960;28;20036;-37
2021/07/06 00:54:27;;;;;;;16.67;5.30;;;;;;;;;;5064513;28;20061;-38
2021/07/06 00:56:54;;;;;;;26.67;5.32;;;;;;;;;;5067890;28;20024;-41
2021/07/06 00:59:21;;;;;;;16.50;5.05;;;;;;;;;;5071346;28;20025;-41
2021/07/06 01:01:49;;;;;;;22.48;5.70;;;;;;;;;;5073058;28;20032;-37
2021/07/06 01:04:16;;;;;;;16.30;5.05;;;;;;;;;;5068514;28;20094;-39
2021/07/06 01:06:43;;;;;;;14.27;5.00;;;;;;;;;;5066663;28;20384;-46
2021/07/06 01:09:11;;;;;;;17.42;5.00;;;;;;;;;;5060271;28;20357;-43
2021/07/06 01:11:38;;;;;;;19.98;4.93;;;;;;;;;;5058621;28;20395;-38
2021/07/06 01:14:05;;;;;;;18.67;5.43;;;;;;;;;;5054047;28;20074;-39
2021/07/06 01:16:32;;;;;;;23.17;5.28;;;;;;;;;;5058303;28;20027;-39
2021/07/06 01:18:59;;;;;;;21.80;5.47;;;;;;;;;;5057925;28;20035;-41
2021/07/06 01:21:26;;;;;;;18.70;4.60;;;;;;;;;;5067255;28;20024;-33
2021/07/06 01:23:53;;;;;;;22.08;5.22;;;;;;;;;;5064783;28;20452;-33
2021/07/06 01:26:20;;;;;;;15.70;4.65;;;;;;;;;;5065674;28;20098;-36
2021/07/06 01:28:48;;;;;;;11.95;4.90;;;;;;;;;;5045778;28;20066;-41
2021/07/06 01:31:15;;;;;;;10.50;4.80;;;;;;;;;;5071430;28;20031;-41
2021/07/06 01:33:42;;;;;;;24.40;4.90;;;;;;;;;;5066797;28;20395;-42
2021/07/06 01:36:09;;;;;;;19.13;4.72;;;;;;;;;;5061969;28;20031;-36
2021/07/06 01:38:37;;;;;;;15.05;5.15;;;;;;;;;;5073462;28;20119;-41
2021/07/06 01:41:05;;;;;;;11.70;4.68;;;;;;;;;;5066062;28;20480;-39
2021/07/06 01:43:33;;;;;;;20.17;4.22;;;;;;;;;;5059942;28;20024;-40
2021/07/06 01:46:02;;;;;;;25.08;5.00;;;;;;;;;;5069427;28;20017;-36
2021/07/06 01:48:29;;;;;;;17.15;4.80;;;;;;;;;;5070521;28;20024;-42
2021/07/06 01:50:57;;;;;;;13.95;3.97;;;;;;;;;;5064639;28;20028;-38
2021/07/06 01:53:24;;;;;;;15.90;3.75;;;;;;;;;;5067153;28;20031;-42
2021/07/06 01:55:53;;;;;;;16.10;4.07;;;;;;;;;;5070316;28;20523;-39
2021/07/06 01:58:21;;;;;;;17.98;4.47;;;;;;;;;;5068553;28;20575;-38
2021/07/06 02:00:50;;;;;;;11.75;3.92;;;;;;;;;;5070111;28;20028;-39
2021/07/06 02:03:18;;;;;;;21.65;4.35;;;;;;;;;;5065534;28;20048;-43
2021/07/06 02:05:46;;;;;;;12.35;4.20;;;;;;;;;;5066206;28;20029;-48
2021/07/06 02:08:16;;;;;;;15.32;4.10;;;;;;;;;;5070383;28;20032;-48
2021/07/06 02:10:44;;;;;;;8.02;3.58;;;;;;;;;;5061995;28;20033;-42
2021/07/06 02:13:13;;;;;;;14.50;4.07;;;;;;;;;;5070324;28;20028;-44
2021/07/06 02:15:41;;;;;;;19.67;4.22;;;;;;;;;;5063858;28;20443;-43
2021/07/06 02:18:13;;;;;;;17.33;4.32;;;;;;;;;;5061998;28;20108;-41
2021/07/06 02:20:40;;;;;;;19.63;4.78;;;;;;;;;;5070756;28;20111;-42
2021/07/06 02:23:08;;;;;;;14.98;3.90;;;;;;;;;;5069313;28;20021;-41
2021/07/06 02:25:35;;;;;;;7.90;3.80;;;;;;;;;;5063334;28;20054;-38
2021/07/06 02:28:02;;;;;;;11.10;3.60;;;;;;;;;;5064787;28;20029;-41
2021/07/06 02:30:29;;;;;;;13.43;4.55;;;;;;;;;;5051737;28;20525;-38
2021/07/06 02:32:56;;;;;;;12.65;3.85;;;;;;;;;;5063345;28;20031;-33
2021/07/06 02:35:27;;;;;;;10.63;3.90;;;;;;;;;;5064736;28;20018;-48
2021/07/06 02:37:55;;;;;;;15.98;4.20;;;;;;;;;;5066436;28;20399;-45
2021/07/06 02:40:22;;;;;;;14.70;3.58;;;;;;;;;;5066027;28;20013;-46
2021/07/06 02:42:49;;;;;;;12.77;3.95;;;;;;;;;;5068459;28;20070;-47
2021/07/06 02:45:17;;;;;;;12.95;4.43;;;;;;;;;;5046924;28;20381;-36
2021/07/06 02:47:44;;;;;;;14.32;3.72;;;;;;;;;;5062601;28;20036;-34
2021/07/06 02:50:12;;;;;;;11.40;3.45;;;;;;;;;;5060990;28;20028;-35
2021/07/06 02:52:39;;;;;;;12.93;3.75;;;;;;;;;;5055864;28;20028;-36
2021/07/06 02:55:07;;;;;;;10.75;4.00;;;;;;;;;;5051853;28;20527;-35
2021/07/06 02:57:37;;;;;;;10.18;3.72;;;;;;;;;;5070619;28;20506;-36
2021/07/06 03:00:09;;;;;;;7.47;3.40;;;;;;;;;;5072328;28;20486;-47
2021/07/06 03:02:36;;;;;;;8.90;3.78;;;;;;;;;;5071701;28;20058;-42
2021/07/06 03:05:04;;;;;;;9.05;3.85;;;;;;;;;;5050463;28;20045;-40
2021/07/06 03:07:31;;;;;;;6.30;3.13;;;;;;;;;;5049379;28;20033;-40
2021/07/06 03:10:01;;;;;;;7.65;3.30;;;;;;;;;;5051976;28;20097;-45
2021/07/06 03:12:28;;;;;;;9.63;3.22;;;;;;;;;;5051680;28;20025;-40
2021/07/06 03:14:55;;;;;;;6.47;2.85;;;;;;;;;;5033493;28;20021;-38
2021/07/06 03:17:22;;;;;;;8.57;4.13;;;;;;;;;;5047239;28;20097;-38
2021/07/06 03:19:49;;;;;;;9.00;3.42;;;;;;;;;;5051540;28;20013;-33
2021/07/06 03:22:16;;;;;;;6.57;3.30;;;;;;;;;;5051658;28;20163;-39
2021/07/06 03:24:43;;;;;;;9.25;3.20;;;;;;;;;;5051222;28;20126;-39
2021/07/06 03:27:10;;;;;;;9.55;3.28;;;;;;;;;;5047121;28;20427;-36
2021/07/06 03:29:37;;;;;;;5.93;3.33;;;;;;;;;;5051499;28;20050;-37
2021/07/06 03:32:05;;;;;;;6.60;3.42;;;;;;;;;;5051834;28;20108;-36
2021/07/06 03:34:32;;;;;;;7.30;3.28;;;;;;;;;;5050936;28;20017;-37
2021/07/06 03:36:59;;;;;;;9.77;3.40;;;;;;;;;;5046803;28;20028;-41
2021/07/06 03:39:26;;;;;;;7.15;3.70;;;;;;;;;;5051627;28;20024;-39
2021/07/06 03:41:53;;;;;;;8.68;3.70;;;;;;;;;;5051450;28;20032;-42
2021/07/06 03:44:20;;;;;;;9.73;3.50;;;;;;;;;;5050900;28;20594;-36
2021/07/06 03:46:47;;;;;;;6.20;3.40;;;;;;;;;;5046413;28;20713;-41
2021/07/06 03:49:14;;;;;;;7.65;3.42;;;;;;;;;;5050863;28;20025;-42
2021/07/06 03:51:41;;;;;;;10.63;3.20;;;;;;;;;;5051406;28;20028;-35
2021/07/06 03:54:08;;;;;;;10.60;3.40;;;;;;;;;;5051030;28;20017;-35
2021/07/06 03:56:35;;;;;;;14.70;5.05;;;;;;;;;;5047323;28;20029;-39
2021/07/06 03:59:02;;;;;;;7.40;3.53;;;;;;;;;;5049137;28;20024;-35
2021/07/06 04:01:29;;;;;;;10.20;3.55;;;;;;;;;;5051179;28;20117;-35
2021/07/06 04:03:56;;;;;;;6.72;3.22;;;;;;;;;;5050365;28;20041;-35
2021/07/06 04:06:23;;;;;;;9.20;3.63;;;;;;;;;;5050228;28;20120;-38
2021/07/06 04:08:50;;;;;;;6.93;3.33;;;;;;;;;;5046810;28;20408;-39
2021/07/06 04:11:17;;;;;;;6.55;3.25;;;;;;;;;;5051038;28;20056;-42
2021/07/06 04:13:44;;;;;;;7.22;3.25;;;;;;;;;;5050844;28;20526;-40
2021/07/06 04:16:11;;;;;;;7.65;3.42;;;;;;;;;;5050661;28;20028;-41
2021/07/06 04:18:38;;;;;;;6.47;3.33;;;;;;;;;;5045642;28;20033;-40
2021/07/06 04:21:07;;;;;;;7.88;3.15;;;;;;;;;;5050875;28;20465;-38
2021/07/06 04:23:34;;;;;;;7.25;3.63;;;;;;;;;;5050876;28;20021;-41
2021/07/06 04:26:02;;;;;;;6.88;3.38;;;;;;;;;;5050059;28;20028;-38
2021/07/06 04:28:29;;;;;;;5.57;3.47;;;;;;;;;;5045691;28;20439;-38
2021/07/06 04:30:56;;;;;;;6.28;3.55;;;;;;;;;;5050947;28;20349;-38
2021/07/06 04:33:23;;;;;;;10.80;3.17;;;;;;;;;;5050355;28;20029;-42
2021/07/06 04:35:50;;;;;;;6.90;3.50;;;;;;;;;;5050265;28;20483;-42
2021/07/06 04:38:17;;;;;;;5.32;3.05;;;;;;;;;;5045858;28;20040;-45
2021/07/06 04:40:44;;;;;;;8.90;3.60;;;;;;;;;;5050639;28;20028;-44
2021/07/06 04:43:11;;;;;;;8.30;3.15;;;;;;;;;;5032547;28;20028;-45
2021/07/06 04:45:39;;;;;;;4.05;3.50;;;;;;;;;;5050157;28;20033;-37
2021/07/06 04:48:07;;;;;;;6.68;3.45;;;;;;;;;;5045459;28;20132;-38
2021/07/06 04:50:39;;;;;;;5.40;3.60;;;;;;;;;;5050450;28;20409;-39
2021/07/06 04:53:07;;;;;;;7.18;3.55;;;;;;;;;;5050642;28;20021;-42
2021/07/06 04:55:35;;;;;;;6.72;3.30;;;;;;;;;;5050334;28;20032;-35
2021/07/06 04:58:03;;;;;;;7.40;3.35;;;;;;;;;;5046577;28;21176;-41
2021/07/06 05:00:30;;;;;;;6.05;3.20;;;;;;;;;;5049351;28;20025;-39
2021/07/06 05:02:58;;;;;;;8.48;3.80;;;;;;;;;;5050422;28;20027;-40
2021/07/06 05:05:26;;;;;;;7.30;3.13;;;;;;;;;;5050196;28;20070;-40
2021/07/06 05:07:55;;;;;;;5.75;3.20;;;;;;;;;;5048752;28;20404;-33
2021/07/06 05:10:22;;;;;;;9.13;3.97;;;;;;;;;;5050660;28;20039;-35
2021/07/06 05:12:49;;;;;;;5.93;3.17;;;;;;;;;;5054360;28;20113;-37
2021/07/06 05:15:17;;;;;;;8.10;3.45;;;;;;;;;;5053502;28;20464;-42
2021/07/06 05:17:44;;;;;;;6.10;3.08;;;;;;;;;;5053949;28;20025;-36
2021/07/06 05:20:11;;;;;;;6.72;3.25;;;;;;;;;;5049267;28;20023;-42
2021/07/06 05:22:38;;;;;;;9.18;3.60;;;;;;;;;;5053950;28;20025;-38
2021/07/06 05:25:06;;;;;;;8.23;3.63;;;;;;;;;;5054001;28;20029;-39
2021/07/06 05:27:33;;;;;;;7.30;3.53;;;;;;;;;;5053483;28;20040;-42
2021/07/06 05:30:00;;;;;;;11.60;3.47;;;;;;;;;;5048771;28;20028;-38
2021/07/06 05:32:27;;;;;;;5.80;3.35;;;;;;;;;;5053722;28;20025;-42
2021/07/06 05:34:54;;;;;;;7.13;3.10;;;;;;;;;;5053900;28;20052;-42
2021/07/06 05:37:22;;;;;;;11.07;3.40;;;;;;;;;;5053210;28;20162;-40
2021/07/06 05:39:49;;;;;;;7.05;3.10;;;;;;;;;;5048732;28;20021;-37
2021/07/06 05:42:16;;;;;;;4.18;2.97;;;;;;;;;;5053235;28;20032;-43
2021/07/06 05:44:47;;;;;;;5.78;3.08;;;;;;;;;;5053459;28;20032;-40
2021/07/06 05:47:15;;;;;;;4.90;2.83;;;;;;;;;;5052749;28;20056;-42
2021/07/06 05:49:42;;;;;;;6.72;2.92;;;;;;;;;;5048354;28;20060;-42
2021/07/06 05:52:09;;;;;;;7.32;3.45;;;;;;;;;;5053304;28;20491;-37
2021/07/06 05:54:36;;;;;;;6.05;3.38;;;;;;;;;;5053137;28;20031;-39
2021/07/06 05:57:03;;;;;;;8.73;3.28;;;;;;;;;;5052962;28;20028;-37
2021/07/06 05:59:30;;;;;;;7.38;3.20;;;;;;;;;;5047987;28;20163;-38
2021/07/06 06:01:57;;;;;;;4.55;3.35;;;;;;;;;;5052213;28;20036;-39
2021/07/06 06:04:26;;;;;;;6.00;3.28;;;;;;;;;;5053077;28;20060;-44
2021/07/06 06:06:53;;;;;;;6.63;3.17;;;;;;;;;;5052298;28;20124;-40
2021/07/06 06:09:20;;;;;;;4.47;3.00;;;;;;;;;;5051890;28;20021;-44
2021/07/06 06:11:47;;;;;;;6.47;3.33;;;;;;;;;;5049615;28;20523;-44
2021/07/06 06:14:15;;;;;;;4.53;2.92;;;;;;;;;;5051980;28;20028;-44
2021/07/06 06:16:42;;;;;;;5.15;3.05;;;;;;;;;;5052526;28;20387;-44
2021/07/06 06:19:09;;;;;;;11.10;3.22;;;;;;;;;;5052555;28;20009;-43
2021/07/06 06:21:36;;;;;;;5.30;2.97;;;;;;;;;;5047723;28;20090;-42
2021/07/06 06:24:03;;;;;;;5.82;3.90;;;;;;;;;;5052629;28;20035;-42
2021/07/06 06:26:30;;;;;;;6.97;3.75;;;;;;;;;;5051991;28;20041;-40
2021/07/06 06:28:57;;;;;;;5.53;3.33;;;;;;;;;;5034376;28;20392;-42
2021/07/06 06:31:24;;;;;;;6.05;3.08;;;;;;;;;;5048052;28;20025;-40
2021/07/06 06:33:51;;;;;;;8.27;2.92;;;;;;;;;;5052661;28;20507;-39
2021/07/06 06:36:18;;;;;;;8.15;3.35;;;;;;;;;;5052216;28;20029;-45
2021/07/06 06:38:45;;;;;;;4.82;2.72;;;;;;;;;;5051632;28;20420;-33
2021/07/06 06:41:12;;;;;;;6.00;3.58;;;;;;;;;;5047789;28;20096;-39
2021/07/06 06:43:40;;;;;;;4.85;3.22;;;;;;;;;;5052338;28;20025;-36
2021/07/06 06:46:07;;;;;;;9.93;3.10;;;;;;;;;;5052560;28;20024;-39
2021/07/06 06:48:34;;;;;;;5.43;3.00;;;;;;;;;;5051273;28;20028;-37
2021/07/06 06:51:01;;;;;;;5.47;2.83;;;;;;;;;;5047697;28;20033;-35
2021/07/06 06:53:28;;;;;;;6.13;3.42;;;;;;;;;;5052284;28;20159;-40
2021/07/06 06:55:55;;;;;;;4.63;3.30;;;;;;;;;;5052353;28;20021;-38
2021/07/06 06:58:22;;;;;;;3.72;2.90;;;;;;;;;;5051578;28;20408;-40
2021/07/06 07:00:49;;;;;;;9.65;3.05;;;;;;;;;;5049433;28;20027;-37
2021/07/06 07:03:16;;;;;;;7.03;3.00;;;;;;;;;;5049544;28;20492;-39
2021/07/06 07:05:43;;;;;;;5.18;3.45;;;;;;;;;;5052346;28;20486;-36
2021/07/06 07:08:10;;;;;;;7.60;3.13;;;;;;;;;;5051231;28;20123;-40
2021/07/06 07:10:40;;;;;;;4.60;2.97;;;;;;;;;;5051736;28;20021;-40
2021/07/06 07:13:07;;;;;;;6.95;3.10;;;;;;;;;;5047557;28;20031;-38
2021/07/06 07:15:35;;;;;;;5.38;2.90;;;;;;;;;;5051924;28;20100;-43
2021/07/06 07:18:02;;;;;;;6.13;3.10;;;;;;;;;;5051258;28;20657;-46
2021/07/06 07:20:29;;;;;;;7.53;2.78;;;;;;;;;;5052055;28;20017;-38
2021/07/06 07:22:56;;;;;;;5.35;3.35;;;;;;;;;;5046536;28;20534;-35
2021/07/06 07:25:23;;;;;;;4.13;3.00;;;;;;;;;;5051608;28;20021;-34
2021/07/06 07:27:50;;;;;;;5.88;3.30;;;;;;;;;;5050915;28;20033;-41
2021/07/06 07:30:19;;;;;;;4.22;2.70;;;;;;;;;;5051048;28;20490;-39
2021/07/06 07:32:46;;;;;;;5.97;2.95;;;;;;;;;;5046049;28;20025;-36
2021/07/06 07:35:13;;;;;;;5.40;3.15;;;;;;;;;;5051466;28;20025;-42
2021/07/06 07:37:41;;;;;;;4.60;2.95;;;;;;;;;;5050946;28;20653;-37
2021/07/06 07:40:08;;;;;;;8.43;3.05;;;;;;;;;;5050927;28;20017;-43
2021/07/06 07:42:35;;;;;;;5.43;2.90;;;;;;;;;;5047049;28;20540;-41
2021/07/06 07:45:02;;;;;;;4.53;2.95;;;;;;;;;;5051284;28;20472;-42
2021/07/06 07:47:29;;;;;;;6.32;2.90;;;;;;;;;;5051195;28;20036;-39
2021/07/06 07:49:56;;;;;;;7.93;3.35;;;;;;;;;;5050288;28;20546;-42
2021/07/06 07:52:23;;;;;;;3.65;2.58;;;;;;;;;;5045960;28;20032;-46
2021/07/06 07:54:50;;;;;;;4.32;3.00;;;;;;;;;;5050715;28;20025;-34
2021/07/06 07:57:23;;;;;;;5.35;3.22;;;;;;;;;;5051228;28;20024;-41
2021/07/06 07:59:51;;;;;;;6.57;3.00;;;;;;;;;;5050761;28;20032;-42
2021/07/06 08:02:18;;;;;;;4.22;2.85;;;;;;;;;;5047962;28;20024;-31
2021/07/06 08:04:45;;;;;;;5.47;3.08;;;;;;;;;;5049081;28;20124;-40
2021/07/06 08:07:12;;;;;;;5.10;2.80;;;;;;;;;;5051116;28;20063;-44
2021/07/06 08:09:40;;;;;;;6.15;3.00;;;;;;;;;;5050119;28;20074;-43
2021/07/06 08:12:07;;;;;;;9.23;3.30;;;;;;;;;;5050808;28;20059;-44
2021/07/06 08:14:34;;;;;;;6.35;2.92;;;;;;;;;;5046207;28;20028;-45
2021/07/06 08:17:02;;;;;;;6.53;2.97;;;;;;;;;;5050808;28;20476;-43
2021/07/06 08:19:29;;;;;;;3.92;2.78;;;;;;;;;;5050475;28;20021;-43
2021/07/06 08:21:56;;;;;;;4.10;2.95;;;;;;;;;;5050496;28;20021;-39
2021/07/06 08:24:23;;;;;;;3.63;2.65;;;;;;;;;;5045621;28;20025;-45
2021/07/06 08:26:50;;;;;;;5.28;2.97;;;;;;;;;;5050313;28;20039;-45
2021/07/06 08:29:18;;;;;;;7.65;3.35;;;;;;;;;;5049847;28;20380;-42
2021/07/06 08:31:45;;;;;;;4.53;2.42;;;;;;;;;;5049947;28;20055;-41
2021/07/06 08:34:13;;;;;;;5.07;2.92;;;;;;;;;;5046068;28;20021;-37
2021/07/06 08:36:40;;;;;;;4.55;2.97;;;;;;;;;;5050318;28;20033;-37
2021/07/06 08:39:07;;;;;;;5.53;2.97;;;;;;;;;;5050024;28;20022;-41
2021/07/06 08:41:35;;;;;;;4.40;2.80;;;;;;;;;;5050091;28;20102;-39
2021/07/06 08:44:03;;;;;;;7.35;2.90;;;;;;;;;;5047070;28;20100;-41
2021/07/06 08:46:32;;;;;;;4.53;2.78;;;;;;;;;;5054240;28;20377;-38
2021/07/06 08:48:59;;;;;;;8.75;3.75;;;;;;;;;;5053975;28;20476;-43
2021/07/06 08:51:26;;;;;;;6.68;3.03;;;;;;;;;;5054336;28;20470;-42
2021/07/06 08:53:53;;;;;;;5.65;2.97;;;;;;;;;;5049502;28;20029;-42
2021/07/06 08:56:20;;;;;;;5.95;2.90;;;;;;;;;;5054167;28;20033;-39
2021/07/06 08:58:47;;;;;;;4.72;3.10;;;;;;;;;;5054047;28;20021;-35
2021/07/06 09:01:14;;;;;;;5.50;2.88;;;;;;;;;;5054067;28;20469;-41
2021/07/06 09:03:58;;;;;;;6.75;3.00;;;;;;;;;;5051517;28;20111;-40
2021/07/06 09:06:26;;;;;;;5.60;3.30;;;;;;;;;;5053955;28;20530;-34
2021/07/06 09:09:12;;;;;;;4.32;2.83;;;;;;;;;;5054052;28;20036;-46
2021/07/06 09:11:47;;;;;;;5.95;3.00;;;;;;;;;;5054197;28;20032;-38
2021/07/06 09:14:14;;;;;;;3.78;2.50;;;;;;;;;;5049984;28;20039;-36
2021/07/06 09:16:42;;;;;;;4.68;2.88;;;;;;;;;;5054244;28;20387;-40
2021/07/06 09:19:21;;;;;;;3.80;2.70;;;;;;;;;;5053788;28;20500;-38
2021/07/06 09:21:48;;;;;;;6.20;2.85;;;;;;;;;;5053833;28;20431;-37
2021/07/06 09:24:25;;;;;;;5.47;2.88;;;;;;;;;;5050848;28;20561;-38
2021/07/06 09:26:53;;;;;;;5.13;2.78;;;;;;;;;;5053159;28;20508;-44
2021/07/06 09:29:24;;;;;;;3.47;2.50;;;;;;;;;;5053437;28;20017;-36
2021/07/06 09:31:52;;;;;;;6.67;3.30;;;;;;;;;;5053888;28;20051;-39
2021/07/06 09:34:20;;;;;;;4.65;2.95;;;;;;;;;;5051456;28;20033;-34
2021/07/06 09:36:50;;;;;;;4.80;2.70;;;;;;;;;;5050802;28;20480;-40
2021/07/06 09:39:21;;;;;;;4.03;2.60;;;;;;;;;;5052634;28;20029;-35
2021/07/06 09:41:59;;;;;;;4.32;2.60;;;;;;;;;;5053146;28;20037;-41
2021/07/06 09:44:27;;;;;;;3.90;2.40;;;;;;;;;;5052585;28;20039;-37
2021/07/06 09:46:56;;;;;;;5.82;3.10;;;;;;;;;;5049490;28;20091;-37
2021/07/06 09:49:24;;;;;;;4.40;2.45;;;;;;;;;;5053120;28;20013;-32
2021/07/06 09:51:52;;;;;;;5.28;2.70;;;;;;;;;;5053018;28;20047;-41
2021/07/06 09:54:30;;;;;;;4.63;2.72;;;;;;;;;;5053056;28;20048;-37
2021/07/06 09:57:12;;;;;;;5.60;2.95;;;;;;;;;;5033486;28;20021;-40
2021/07/06 09:59:53;;;;;;;3.70;2.73;;;;;;;;;;5033596;28;20251;-35
2021/07/06 10:02:21;;;;;;;3.72;2.45;;;;;;;;;;5033096;28;20025;-37
2021/07/06 10:04:49;;;;;;;4.43;2.33;;;;;;;;;;5037785;28;20127;-36
2021/07/06 10:07:17;;;;;;;5.03;2.30;;;;;;;;;;5048313;28;20112;-34
2021/07/06 10:09:44;;;;;;;4.82;2.45;;;;;;;;;;5052348;28;20013;-37
2021/07/06 10:12:11;;;;;;;7.43;2.55;;;;;;;;;;5052265;28;20017;-47
2021/07/06 10:14:38;;;;;;;4.85;2.70;;;;;;;;;;5052588;28;20025;-35
2021/07/06 10:17:07;;;;;;;3.38;2.38;;;;;;;;;;5046973;28;20017;-32
2021/07/06 10:19:39;;;;;;;5.93;2.75;;;;;;;;;;5051888;28;20493;-32
2021/07/06 10:22:09;;;;;;;6.97;2.90;;;;;;;;;;5051575;28;20024;-36
2021/07/06 10:24:38;;;;;;;7.55;3.03;;;;;;;;;;5052323;28;20022;-36
2021/07/06 10:27:06;;;;;;;7.45;2.80;;;;;;;;;;5047060;28;20489;-34
2021/07/06 10:29:34;;;;;;;6.82;2.70;;;;;;;;;;5052695;28;20068;-33
2021/07/06 10:32:01;;;;;;;5.60;2.70;;;;;;;;;;5052519;28;20044;-32
2021/07/06 10:34:28;;;;;;;9.48;3.20;;;;;;;;;;5052177;28;20067;-34
2021/07/06 10:36:59;;;;;;;11.38;2.70;;;;;;;;;;5047778;28;20021;-33
2021/07/06 10:39:45;;;;;;;6.75;2.90;;;;;;;;;;5048650;28;20519;-33
2021/07/06 10:42:12;;;;;;;6.88;3.13;;;;;;;;;;5051060;28;20058;-35
2021/07/06 10:44:42;;;;;;;6.40;2.72;;;;;;;;;;5051361;28;20086;-50
2021/07/06 10:47:45;;;;;;;5.38;2.80;;;;;;;;;;5045633;28;20032;-40
2021/07/06 10:50:11;;;;;;;;;;;;;;;;;;4973238;28;20426;-39
2021/07/06 10:52:38;;;;;;;5.13;2.70;;;;;;;;;;5038650;28;19905;-38
2021/07/06 10:55:25;;;;;;;6.20;2.58;;;;;;;;;;5051297;28;20018;-44
2021/07/06 10:57:52;;;;;;;7.70;2.65;;;;;;;;;;5036081;28;20037;-36
2021/07/06 11:00:39;;;;;;;6.90;3.05;;;;;;;;;;5052189;28;20021;-38
2021/07/06 11:03:26;;;;;;;4.53;2.50;;;;;;;;;;5050954;28;20152;-53
2021/07/06 11:05:52;;;;;;;8.68;2.70;;;;;;;;;;5048386;28;20480;-52
2021/07/06 11:08:38;;;;;;;5.05;2.70;;;;;;;;;;5046394;28;20084;-51
2021/07/06 11:11:05;;;;;;;4.03;2.50;;;;;;;;;;5038730;28;20029;-54
2021/07/06 11:13:32;;;;;;;13.63;3.70;;;;;;;;;;5028254;28;20049;-34
2021/07/06 11:16:01;;;;;;;19.60;3.28;;;;;;;;;;5039652;28;20017;-39
2021/07/06 11:18:35;;;;;;;29.45;4.18;;;;;;;;;;5044070;28;20655;-38
2021/07/06 11:21:02;;;;;;;197.15;16.13;;;;;;;;;;5031444;28;20037;-37
2021/07/06 11:23:33;;;;;;;101.30;13.05;;;;;;;;;;5031934;28;20101;-37
2021/07/06 11:26:10;;;;;;;68.25;7.78;;;;;;;;;;5031712;28;20358;-39
2021/07/06 11:28:51;;;;;;;51.88;7.78;;;;;;;;;;5041638;28;20041;-37
2021/07/06 11:31:19;;;;;;;44.42;6.78;;;;;;;;;;5051064;28;20029;-37
2021/07/06 11:33:47;;;;;;;30.80;6.43;;;;;;;;;;5051666;28;20110;-42
2021/07/06 11:36:17;;;;;;;23.75;5.00;;;;;;;;;;5033387;28;20481;-41
2021/07/06 11:38:48;;;;;;;32.80;5.35;;;;;;;;;;5041156;28;20397;-44
2021/07/06 11:41:17;;;;;;;22.90;4.53;;;;;;;;;;5042134;28;20021;-37
2021/07/06 11:43:44;;;;;;;33.17;4.20;;;;;;;;;;5041114;28;20028;-35
2021/07/06 11:46:13;;;;;;;25.95;5.25;;;;;;;;;;5041805;28;20075;-36
2021/07/06 11:48:41;;;;;;;21.92;4.05;;;;;;;;;;5043026;28;20507;-48
2021/07/06 11:51:12;;;;;;;16.90;4.70;;;;;;;;;;5051199;28;20104;-36
2021/07/06 11:53:45;;;;;;;18.57;4.37;;;;;;;;;;5051046;28;20087;-53
2021/07/06 11:56:14;;;;;;;223.65;29.75;;;;;;;;;;5050732;28;20388;-42
2021/07/06 11:58:41;;;;;;;112.95;15.43;;;;;;;;;;5045739;28;20028;-48
2021/07/06 12:01:12;;;;;;;88.10;12.48;;;;;;;;;;5050545;28;20112;-44
2021/07/06 12:03:41;;;;;;;77.27;11.70;;;;;;;;;;5058477;28;20523;-37
2021/07/06 12:06:12;;;;;;;80.88;13.70;;;;;;;;;;5070071;28;20037;-36
2021/07/06 12:08:42;;;;;;;109.97;14.25;;;;;;;;;;5066088;28;20032;-38
2021/07/06 12:11:15;;;;;;;74.07;12.85;;;;;;;;;;5066830;28;20013;-36
2021/07/06 12:13:42;;;;;;;100.40;12.77;;;;;;;;;;5058044;28;20436;-38
2021/07/06 12:16:14;;;;;;;89.57;13.52;;;;;;;;;;5049292;28;20044;-37
2021/07/06 12:18:55;;;;;;;63.10;8.95;;;;;;;;;;5053117;28;20060;-35
2021/07/06 12:21:24;;;;;;;52.17;8.90;;;;;;;;;;5070889;28;20090;-34
2021/07/06 12:23:51;;;;;;;46.38;8.70;;;;;;;;;;5052496;28;20434;-39
2021/07/06 12:26:18;;;;;;;27.30;7.80;;;;;;;;;;5062370;28;20052;-39
2021/07/06 12:28:45;;;;;;;31.40;7.38;;;;;;;;;;5058728;28;20111;-34
2021/07/06 12:31:22;;;;;;;29.95;7.75;;;;;;;;;;5060092;28;20506;-37
2021/07/06 12:33:59;;;;;;;26.95;7.00;;;;;;;;;;5067474;28;20037;-35
2021/07/06 12:36:29;;;;;;;177.60;15.70;;;;;;;;;;5070358;28;20442;-35
2021/07/06 12:39:09;;;;;;;218.90;16.40;;;;;;;;;;5066693;28;20032;-38
2021/07/06 12:41:47;;;;;;;215.30;16.90;;;;;;;;;;5067720;28;20434;-44
2021/07/06 12:44:18;;;;;;;189.90;15.20;;;;;;;;;;5061486;28;20027;-48
2021/07/06 12:46:45;;;;;;;128.40;14.55;;;;;;;;;;5060751;28;20029;-44
2021/07/06 12:49:22;;;;;;;96.63;11.20;;;;;;;;;;5059793;28;20476;-42
2021/07/06 12:51:59;;;;;;;92.80;10.70;;;;;;;;;;5060151;28;20022;-34
2021/07/06 12:54:38;;;;;;;81.55;10.02;;;;;;;;;;5068130;28;20020;-38
2021/07/06 12:57:05;;;;;;;66.07;9.00;;;;;;;;;;5069539;28;20024;-40
2021/07/06 12:59:34;;;;;;;51.15;7.50;;;;;;;;;;5066269;28;20040;-37
2021/07/06 13:02:18;;;;;;;41.90;6.20;;;;;;;;;;5070047;28;20056;-48
2021/07/06 13:04:53;;;;;;;45.55;6.80;;;;;;;;;;5053194;28;20041;-54
2021/07/06 13:07:28;;;;;;;58.17;8.38;;;;;;;;;;5050199;28;20496;-44
2021/07/06 13:10:05;;;;;;;40.05;7.10;;;;;;;;;;5045482;28;20116;-54
2021/07/06 13:12:33;;;;;;;56.67;8.52;;;;;;;;;;5050280;28;20036;-52
2021/07/06 13:15:00;;;;;;;57.28;7.70;;;;;;;;;;5049919;28;20028;-38
2021/07/06 13:17:30;;;;;;;46.03;7.38;;;;;;;;;;5050267;28;20066;-51
2021/07/06 13:20:01;;;;;;;49.22;7.25;;;;;;;;;;5046344;28;20087;-39
2021/07/06 13:22:28;;;;;;;35.50;6.97;;;;;;;;;;5048739;28;20480;-40
2021/07/06 13:24:58;;;;;;;46.60;7.00;;;;;;;;;;5049419;28;20032;-38
2021/07/06 13:27:25;;;;;;;41.25;7.32;;;;;;;;;;5041307;28;20108;-49
2021/07/06 13:29:52;;;;;;;44.45;7.03;;;;;;;;;;5036593;28;20555;-39
2021/07/06 13:32:19;;;;;;;42.65;6.80;;;;;;;;;;5049930;28;20108;-55
2021/07/06 13:34:46;;;;;;;37.45;7.35;;;;;;;;;;5048714;28;20027;-39
2021/07/06 13:37:13;;;;;;;33.40;6.68;;;;;;;;;;5035805;28;20140;-39
2021/07/06 13:39:40;;;;;;;37.10;6.35;;;;;;;;;;5053301;28;20495;-51
2021/07/06 13:42:07;;;;;;;34.33;6.50;;;;;;;;;;5049070;28;20079;-35
2021/07/06 13:44:37;;;;;;;25.42;6.25;;;;;;;;;;5049355;28;20496;-40
2021/07/06 13:47:13;;;;;;;25.02;5.72;;;;;;;;;;5041202;28;20077;-43
2021/07/06 13:49:45;;;;;;;30.33;5.32;;;;;;;;;;5041576;28;20492;-37
2021/07/06 13:52:13;;;;;;;26.77;5.50;;;;;;;;;;5044654;28;20024;-45
2021/07/06 13:54:40;;;;;;;24.50;5.00;;;;;;;;;;5052168;28;20025;-34
2021/07/06 13:57:13;;;;;;;15.38;4.63;;;;;;;;;;5052631;28;20565;-34
2021/07/06 13:59:40;;;;;;;15.13;4.60;;;;;;;;;;5052240;28;20033;-35
2021/07/06 14:02:07;;;;;;;14.45;4.88;;;;;;;;;;5041528;28;20025;-36
2021/07/06 14:04:34;;;;;;;17.88;4.80;;;;;;;;;;5065512;28;20442;-43
2021/07/06 14:07:04;;;;;;;16.35;5.15;;;;;;;;;;5068986;28;20086;-51
2021/07/06 14:09:32;;;;;;;15.70;4.68;;;;;;;;;;5070609;28;20035;-37
2021/07/06 14:11:59;;;;;;;11.88;4.70;;;;;;;;;;5073043;28;20088;-44
2021/07/06 14:14:27;;;;;;;17.08;4.45;;;;;;;;;;5072080;28;20032;-36
2021/07/06 14:16:54;;;;;;;50.58;7.65;;;;;;;;;;5073236;28;20056;-36
2021/07/06 14:19:21;;;;;;;18.42;4.75;;;;;;;;;;5066410;28;20013;-49
2021/07/06 14:21:49;;;;;;;21.38;5.35;;;;;;;;;;5064494;28;20016;-35
2021/07/06 14:24:16;;;;;;;22.42;5.32;;;;;;;;;;5072606;28;20028;-42
2021/07/06 14:26:43;;;;;;;20.27;5.18;;;;;;;;;;5072516;28;20032;-43
2021/07/06 14:29:12;;;;;;;20.10;5.00;;;;;;;;;;5072214;28;20059;-45
2021/07/06 14:31:39;;;;;;;18.13;5.40;;;;;;;;;;5072486;28;20028;-36
2021/07/06 14:34:07;;;;;;;22.98;5.63;;;;;;;;;;5069136;28;20570;-38
2021/07/06 14:36:34;;;;;;;19.65;4.60;;;;;;;;;;5053412;28;20438;-38
2021/07/06 14:39:02;;;;;;;13.10;4.80;;;;;;;;;;5070364;28;20066;-43
2021/07/06 14:41:29;;;;;;;23.48;5.10;;;;;;;;;;5070805;28;20024;-46
2021/07/06 14:43:56;;;;;;;13.95;5.00;;;;;;;;;;5072022;28;20017;-44